createdAt,value
2023-05-07T00:01:26.252Z,56.42
2023-05-07T00:03:55.888Z,56.30
2023-05-07T00:06:27.526Z,56.51
2023-05-07T00:08:59.217Z,57.08
2023-05-07T00:11:29.655Z,57.25
2023-05-07T00:13:59.453Z,57.43
2023-05-07T00:16:28.882Z,57.78
2023-05-07T00:18:58.210Z,57.96
2023-05-07T00:21:29.887Z,58.11
2023-05-07T00:23:58.908Z,57.89
2023-05-07T00:26:28.380Z,58.14
2023-05-07T00:28:58.073Z,58.12
2023-05-07T00:31:27.305Z,58.01
2023-05-07T00:33:56.223Z,57.84
2023-05-07T00:36:25.389Z,57.65
2023-05-07T00:38:57.184Z,57.80
2023-05-07T00:41:28.056Z,57.74
2023-05-07T00:43:57.230Z,57.99
2023-05-07T00:46:26.524Z,58.20
2023-05-07T00:48:56.234Z,58.37
2023-05-07T00:51:28.474Z,58.21
2023-05-07T00:53:57.693Z,58.28
2023-05-07T00:56:26.771Z,58.31
2023-05-07T00:58:56.199Z,58.74
2023-05-07T01:01:25.296Z,59.07
2023-05-07T01:03:55.178Z,58.92
2023-05-07T01:06:26.414Z,58.84
2023-05-07T01:08:59.479Z,58.82
2023-05-07T01:11:28.374Z,58.99
2023-05-07T01:13:59.765Z,58.52
2023-05-07T01:16:28.878Z,58.58
2023-05-07T01:18:57.791Z,58.39
2023-05-07T01:21:28.219Z,58.16
2023-05-07T01:23:58.187Z,58.27
2023-05-07T01:26:28.351Z,58.54
2023-05-07T01:28:57.411Z,58.37
2023-05-07T01:31:26.985Z,58.20
2023-05-07T01:33:59.571Z,58.01
2023-05-07T01:36:31.711Z,58.02
2023-05-07T01:39:01.553Z,58.30
2023-05-07T01:41:30.480Z,57.97
2023-05-07T01:44:01.300Z,57.89
2023-05-07T01:46:31.786Z,57.95
2023-05-07T01:49:00.976Z,57.96
2023-05-07T01:51:29.866Z,58.15
2023-05-07T01:54:00.669Z,58.23
2023-05-07T01:56:29.657Z,58.44
2023-05-07T01:58:58.855Z,58.53
2023-05-07T02:01:28.581Z,58.87
2023-05-07T02:03:58.104Z,59.16
2023-05-07T02:06:27.346Z,59.32
2023-05-07T02:08:56.754Z,59.24
2023-05-07T02:11:26.633Z,59.53
2023-05-07T02:13:55.626Z,59.78
2023-05-07T02:16:25.600Z,60.13
2023-05-07T02:18:54.594Z,60.18
2023-05-07T02:21:24.027Z,60.19
2023-05-07T02:23:53.480Z,60.18
2023-05-07T02:26:23.100Z,60.50
2023-05-07T02:28:52.258Z,60.95
2023-05-07T02:31:21.318Z,61.03
2023-05-07T02:33:52.676Z,60.36
2023-05-07T02:36:21.305Z,59.96
2023-05-07T02:38:50.408Z,59.76
2023-05-07T02:41:20.387Z,59.97
2023-05-07T02:43:49.635Z,59.58
2023-05-07T02:46:18.531Z,59.32
2023-05-07T02:48:47.425Z,59.33
2023-05-07T02:51:16.958Z,59.49
2023-05-07T02:53:47.398Z,60.03
2023-05-07T02:56:16.950Z,60.31
2023-05-07T02:58:46.232Z,60.53
2023-05-07T03:01:15.364Z,60.48
2023-05-07T03:03:46.116Z,60.72
2023-05-07T03:06:15.042Z,61.20
2023-05-07T03:08:44.681Z,61.31
2023-05-07T03:11:13.959Z,61.30
2023-05-07T03:13:43.054Z,61.53
2023-05-07T03:16:14.156Z,61.67
2023-05-07T03:18:43.516Z,62.04
2023-05-07T03:21:13.942Z,62.06
2023-05-07T03:23:43.121Z,62.20
2023-05-07T03:26:12.180Z,62.21
2023-05-07T03:28:42.028Z,61.97
2023-05-07T03:31:11.281Z,61.31
2023-05-07T03:33:54.854Z,60.42
2023-05-07T03:36:25.059Z,59.67
2023-05-07T03:38:55.738Z,59.63
2023-05-07T03:41:25.561Z,59.96
2023-05-07T03:43:54.810Z,59.92
2023-05-07T03:46:23.956Z,59.84
2023-05-07T03:48:54.483Z,59.88
2023-05-07T03:51:23.694Z,59.95
2023-05-07T03:53:58.594Z,60.40
2023-05-07T03:56:29.240Z,60.48
2023-05-07T03:58:58.586Z,60.56
2023-05-07T04:01:29.212Z,60.66
2023-05-07T04:03:58.523Z,60.22
2023-05-07T04:06:27.855Z,60.47
2023-05-07T04:08:58.704Z,60.43
2023-05-07T04:11:28.518Z,60.41
2023-05-07T04:13:57.954Z,60.62
2023-05-07T04:16:28.312Z,60.30
2023-05-07T04:18:57.467Z,60.66
2023-05-07T04:21:28.381Z,60.41
2023-05-07T04:23:57.537Z,60.13
2023-05-07T04:26:26.740Z,59.81
2023-05-07T04:28:55.968Z,59.69
2023-05-07T04:31:24.872Z,59.89
2023-05-07T04:33:53.931Z,60.13
2023-05-07T04:36:22.808Z,59.99
2023-05-07T04:38:51.936Z,59.97
2023-05-07T04:41:21.945Z,60.16
2023-05-07T04:43:51.529Z,60.50
2023-05-07T04:46:20.602Z,60.62
2023-05-07T04:48:49.969Z,60.16
2023-05-07T04:51:19.597Z,60.03
2023-05-07T04:53:49.253Z,60.00
2023-05-07T04:56:18.709Z,60.46
2023-05-07T04:58:47.571Z,60.71
2023-05-07T05:01:16.683Z,60.46
2023-05-07T05:03:45.831Z,60.00
2023-05-07T05:06:15.153Z,59.68
2023-05-07T05:08:44.713Z,59.78
2023-05-07T05:11:13.969Z,60.35
2023-05-07T05:13:43.080Z,60.24
2023-05-07T05:16:12.203Z,59.89
2023-05-07T05:18:41.645Z,59.73
2023-05-07T05:21:10.361Z,59.46
2023-05-07T05:23:39.181Z,59.66
2023-05-07T05:26:08.007Z,59.70
2023-05-07T05:28:37.493Z,59.60
2023-05-07T05:31:07.092Z,59.22
2023-05-07T05:33:36.810Z,58.93
2023-05-07T05:36:06.525Z,59.04
2023-05-07T05:38:35.577Z,58.87
2023-05-07T05:41:04.756Z,58.47
2023-05-07T05:43:33.718Z,58.43
2023-05-07T05:46:03.405Z,58.58
2023-05-07T05:48:32.850Z,58.25
2023-05-07T05:51:02.767Z,58.33
2023-05-07T05:53:32.048Z,58.14
2023-05-07T05:56:02.293Z,57.73
2023-05-07T05:58:31.657Z,57.60
2023-05-07T06:01:01.026Z,57.40
2023-05-07T06:03:30.596Z,57.13
2023-05-07T06:06:01.380Z,57.13
2023-05-07T06:08:31.925Z,57.28
2023-05-07T06:11:01.506Z,56.88
2023-05-07T06:13:30.443Z,56.49
2023-05-07T06:15:59.622Z,56.06
2023-05-07T06:18:28.477Z,55.95
2023-05-07T06:20:57.932Z,55.96
2023-05-07T06:23:27.260Z,55.66
2023-05-07T06:25:56.325Z,55.25
2023-05-07T06:28:25.304Z,55.02
2023-05-07T06:30:55.688Z,55.02
2023-05-07T06:33:25.050Z,54.84
2023-05-07T06:35:54.047Z,54.75
2023-05-07T06:38:23.729Z,54.70
2023-05-07T06:40:52.963Z,54.41
2023-05-07T06:43:21.931Z,54.20
2023-05-07T06:45:51.684Z,54.28
2023-05-07T06:48:20.912Z,54.31
2023-05-07T06:50:50.033Z,54.18
2023-05-07T06:53:19.487Z,53.95
2023-05-07T06:55:48.667Z,53.06
2023-05-07T06:58:17.737Z,51.92
2023-05-07T07:00:47.201Z,50.72
2023-05-07T07:03:16.687Z,49.64
2023-05-07T07:05:45.930Z,48.23
2023-05-07T07:08:16.095Z,46.72
2023-05-07T07:10:45.395Z,45.94
2023-05-07T07:13:15.694Z,44.61
2023-05-07T07:15:45.460Z,43.93
2023-05-07T07:18:15.052Z,43.07
2023-05-07T07:20:46.012Z,42.22
2023-05-07T07:23:16.029Z,41.39
2023-05-07T07:25:45.665Z,40.00
2023-05-07T07:28:15.542Z,39.34
2023-05-07T07:30:44.697Z,39.45
2023-05-07T07:33:13.715Z,39.21
2023-05-07T07:35:43.027Z,38.31
2023-05-07T07:38:12.548Z,36.05
2023-05-07T07:40:42.484Z,34.90
2023-05-07T07:43:12.176Z,33.01
2023-05-07T07:45:41.669Z,32.86
2023-05-07T07:48:11.097Z,33.03
2023-05-07T07:50:45.843Z,32.74
2023-05-07T07:53:15.761Z,32.39
2023-05-07T07:55:44.864Z,32.16
2023-05-07T07:58:14.177Z,32.18
2023-05-07T08:00:43.281Z,31.56
2023-05-07T08:03:13.025Z,31.36
2023-05-07T08:05:44.581Z,30.86
2023-05-07T08:08:14.282Z,30.15
2023-05-07T08:10:43.577Z,29.55
2023-05-07T08:13:13.080Z,29.06
2023-05-07T08:15:42.610Z,28.56
2023-05-07T08:18:11.999Z,27.93
2023-05-07T08:20:43.886Z,27.55
2023-05-07T08:23:13.527Z,27.15
2023-05-07T08:25:44.248Z,26.60
2023-05-07T08:28:14.086Z,26.28
2023-05-07T08:30:43.231Z,25.64
2023-05-07T08:33:12.562Z,25.35
2023-05-07T08:35:42.078Z,25.07
2023-05-07T08:38:11.542Z,24.36
2023-05-07T08:40:43.068Z,23.99
2023-05-07T08:43:16.408Z,24.15
2023-05-07T08:45:47.581Z,23.38
2023-05-07T08:48:18.905Z,22.93
2023-05-07T08:50:49.384Z,21.96
2023-05-07T08:53:18.554Z,22.37
2023-05-07T08:55:49.321Z,22.18
2023-05-07T08:58:22.000Z,21.71
2023-05-07T09:00:53.766Z,21.87
2023-05-07T09:03:23.136Z,21.99
2023-05-07T09:05:52.494Z,21.85
2023-05-07T09:08:29.468Z,21.52
2023-05-07T09:11:00.737Z,21.42
2023-05-07T09:13:31.069Z,21.02
2023-05-07T09:16:01.160Z,21.15
2023-05-07T09:18:30.150Z,20.71
2023-05-07T09:20:59.048Z,20.55
2023-05-07T09:23:28.170Z,20.54
2023-05-07T09:26:02.984Z,19.89
2023-05-07T09:28:34.401Z,18.96
2023-05-07T09:31:03.612Z,18.62
2023-05-07T09:33:32.810Z,18.28
2023-05-07T09:36:10.727Z,18.41
2023-05-07T09:38:40.279Z,18.22
2023-05-07T09:41:13.695Z,16.46
2023-05-07T09:43:42.923Z,16.03
2023-05-07T09:46:16.936Z,16.88
2023-05-07T09:48:46.743Z,17.01
2023-05-07T09:51:37.308Z,16.92
2023-05-07T09:54:08.780Z,16.65
2023-05-07T09:56:43.381Z,17.02
2023-05-07T09:59:17.237Z,17.62
2023-05-07T10:01:47.519Z,17.29
2023-05-07T10:04:18.771Z,17.02
2023-05-07T10:06:48.292Z,16.84
2023-05-07T10:09:19.529Z,15.89
2023-05-07T10:11:51.624Z,15.00
2023-05-07T10:14:24.052Z,16.06
2023-05-07T10:16:59.250Z,16.72
2023-05-07T10:19:31.554Z,16.99
2023-05-07T10:22:07.229Z,17.15
2023-05-07T10:24:39.732Z,17.03
2023-05-07T10:27:13.028Z,17.03
2023-05-07T10:30:02.123Z,17.11
2023-05-07T10:32:50.638Z,17.26
2023-05-07T10:35:25.337Z,17.01
2023-05-07T10:37:55.756Z,17.47
2023-05-07T10:40:27.102Z,17.14
2023-05-07T10:43:08.614Z,16.73
2023-05-07T10:45:41.043Z,16.95
2023-05-07T10:51:11.696Z,17.24
2023-05-07T10:53:41.135Z,17.43
2023-05-07T10:56:18.822Z,17.32
2023-05-07T10:58:47.996Z,17.03
2023-05-07T11:01:47.706Z,17.01
2023-05-07T11:04:20.281Z,17.42
2023-05-07T11:07:08.580Z,16.68
2023-05-07T11:09:56.096Z,16.75
2023-05-07T11:12:45.604Z,16.89
2023-05-07T11:15:19.956Z,16.88
2023-05-07T11:18:02.142Z,16.82
2023-05-07T11:21:01.773Z,16.82
2023-05-07T11:23:37.132Z,16.53
2023-05-07T11:26:11.641Z,16.82
2023-05-07T11:28:43.393Z,16.66
2023-05-07T11:31:13.988Z,16.46
2023-05-07T11:33:46.605Z,16.49
2023-05-07T11:36:19.174Z,16.54
2023-05-07T11:38:49.530Z,16.57
2023-05-07T11:41:22.391Z,15.88
2023-05-07T11:43:59.536Z,15.79
2023-05-07T11:46:31.089Z,16.30
2023-05-07T11:49:02.722Z,16.47
2023-05-07T11:51:35.206Z,16.55
2023-05-07T11:54:13.209Z,17.01
2023-05-07T11:56:42.855Z,16.54
2023-05-07T11:59:12.960Z,16.13
2023-05-07T12:01:49.578Z,15.66
2023-05-07T12:04:24.172Z,15.82
2023-05-07T12:06:58.371Z,16.15
2023-05-07T12:09:29.146Z,16.20
2023-05-07T12:11:59.044Z,16.08
2023-05-07T12:14:31.277Z,16.01
2023-05-07T12:17:06.238Z,15.89
2023-05-07T12:19:36.790Z,15.44
2023-05-07T12:22:07.596Z,15.54
2023-05-07T12:24:59.411Z,15.76
2023-05-07T12:27:28.820Z,15.94
2023-05-07T12:30:00.381Z,16.08
2023-05-07T12:32:30.555Z,16.23
2023-05-07T12:34:59.476Z,16.75
2023-05-07T12:37:31.158Z,16.26
2023-05-07T12:40:07.929Z,16.19
2023-05-07T12:42:42.872Z,16.46
2023-05-07T12:45:22.608Z,17.00
2023-05-07T12:47:51.957Z,16.80
2023-05-07T12:50:22.489Z,16.90
2023-05-07T12:52:52.288Z,16.92
2023-05-07T12:55:21.414Z,16.50
2023-05-07T12:57:54.882Z,16.62
2023-05-07T13:00:40.584Z,16.35
2023-05-07T13:03:10.057Z,17.02
2023-05-07T13:05:39.181Z,16.69
2023-05-07T13:08:11.126Z,16.89
2023-05-07T13:10:40.217Z,17.08
2023-05-07T13:13:09.433Z,17.31
2023-05-07T13:15:39.295Z,17.53
2023-05-07T13:18:09.388Z,17.61
2023-05-07T13:20:38.842Z,17.61
2023-05-07T13:23:07.988Z,17.41
2023-05-07T13:25:37.218Z,17.00
2023-05-07T13:28:11.254Z,17.63
2023-05-07T13:30:42.248Z,17.86
2023-05-07T13:33:11.951Z,18.03
2023-05-07T13:35:41.397Z,17.98
2023-05-07T13:38:10.832Z,17.97
2023-05-07T13:40:39.996Z,18.17
2023-05-07T13:43:09.454Z,18.43
2023-05-07T13:45:38.606Z,18.87
2023-05-07T13:48:08.015Z,19.22
2023-05-07T13:50:37.250Z,19.17
2023-05-07T13:53:06.495Z,19.37
2023-05-07T13:55:35.995Z,19.47
2023-05-07T13:58:07.390Z,19.76
2023-05-07T14:00:37.418Z,19.43
2023-05-07T14:03:07.566Z,19.71
2023-05-07T14:05:37.462Z,20.15
2023-05-07T14:08:07.724Z,19.85
2023-05-07T14:10:37.084Z,19.87
2023-05-07T14:13:06.569Z,19.48
2023-05-07T14:15:37.045Z,19.38
2023-05-07T14:18:07.109Z,19.53
2023-05-07T14:20:38.167Z,19.78
2023-05-07T14:23:08.680Z,19.38
2023-05-07T14:25:38.945Z,19.50
2023-05-07T14:28:08.886Z,19.66
2023-05-07T14:30:39.576Z,19.58
2023-05-07T14:33:08.613Z,19.75
2023-05-07T14:35:38.840Z,19.69
2023-05-07T14:38:08.300Z,20.14
2023-05-07T14:40:37.072Z,19.82
2023-05-07T14:43:06.441Z,20.13
2023-05-07T14:45:35.181Z,20.07
2023-05-07T14:48:05.016Z,20.86
2023-05-07T14:50:34.128Z,21.17
2023-05-07T14:53:05.428Z,20.65
2023-05-07T14:55:37.518Z,20.50
2023-05-07T14:58:08.085Z,20.72
2023-05-07T15:00:37.524Z,20.46
2023-05-07T15:03:09.700Z,21.04
2023-05-07T15:05:40.071Z,21.80
2023-05-07T15:08:09.301Z,22.66
2023-05-07T15:10:42.630Z,23.46
2023-05-07T15:13:15.864Z,22.84
2023-05-07T15:15:48.253Z,22.66
2023-05-07T15:18:18.252Z,22.97
2023-05-07T15:20:47.883Z,23.60
2023-05-07T15:23:17.399Z,24.36
2023-05-07T15:25:47.788Z,24.51
2023-05-07T15:28:19.367Z,24.62
2023-05-07T15:30:48.601Z,24.67
2023-05-07T15:33:18.074Z,24.93
2023-05-07T15:35:48.649Z,24.69
2023-05-07T15:38:19.137Z,25.09
2023-05-07T15:40:48.746Z,25.29
2023-05-07T15:43:19.099Z,25.54
2023-05-07T15:45:48.414Z,26.04
2023-05-07T15:48:18.291Z,26.83
2023-05-07T15:50:47.843Z,26.96
2023-05-07T15:53:19.381Z,27.09
2023-05-07T15:55:49.634Z,27.62
2023-05-07T15:58:21.048Z,28.30
2023-05-07T16:00:51.785Z,29.12
2023-05-07T16:03:22.775Z,29.39
2023-05-07T16:05:53.224Z,30.32
2023-05-07T16:08:22.835Z,30.71
2023-05-07T16:10:52.482Z,31.40
2023-05-07T16:13:21.913Z,31.90
2023-05-07T16:16:00.567Z,32.57
2023-05-07T16:18:30.056Z,32.61
2023-05-07T16:21:01.732Z,32.81
2023-05-07T16:23:31.782Z,33.30
2023-05-07T16:26:01.065Z,33.52
2023-05-07T16:28:30.867Z,33.50
2023-05-07T16:31:01.649Z,33.98
2023-05-07T16:33:32.398Z,34.30
2023-05-07T16:36:03.015Z,34.60
2023-05-07T16:38:33.627Z,34.49
2023-05-07T16:41:02.814Z,35.02
2023-05-07T16:43:32.218Z,35.33
2023-05-07T16:46:01.775Z,35.33
2023-05-07T16:48:31.336Z,35.52
2023-05-07T16:51:01.054Z,35.77
2023-05-07T16:53:31.581Z,35.82
2023-05-07T16:56:06.162Z,35.82
2023-05-07T16:58:36.323Z,36.07
2023-05-07T17:01:05.562Z,36.37
2023-05-07T17:03:35.125Z,36.47
2023-05-07T17:06:04.638Z,36.63
2023-05-07T17:08:36.949Z,36.74
2023-05-07T17:11:07.348Z,37.11
2023-05-07T17:13:36.472Z,37.18
2023-05-07T17:16:06.637Z,36.89
2023-05-07T17:18:37.869Z,36.65
2023-05-07T17:21:08.203Z,36.81
2023-05-07T17:23:38.951Z,36.75
2023-05-07T17:26:14.338Z,36.71
2023-05-07T17:28:45.001Z,36.96
2023-05-07T17:31:14.856Z,37.24
2023-05-07T17:33:45.427Z,37.40
2023-05-07T17:36:16.129Z,37.80
2023-05-07T17:38:46.505Z,38.02
2023-05-07T17:41:16.087Z,38.28
2023-05-07T17:43:45.476Z,38.58
2023-05-07T17:46:15.008Z,38.67
2023-05-07T17:48:45.629Z,38.83
2023-05-07T17:51:16.913Z,39.31
2023-05-07T17:53:46.796Z,39.34
2023-05-07T17:56:18.436Z,39.56
2023-05-07T17:58:58.749Z,39.64
2023-05-07T18:01:28.604Z,40.04
2023-05-07T18:03:58.925Z,40.21
2023-05-07T18:06:29.020Z,40.72
2023-05-07T18:08:58.260Z,40.84
2023-05-07T18:11:30.978Z,40.99
2023-05-07T18:14:02.463Z,41.01
2023-05-07T18:16:32.105Z,41.04
2023-05-07T18:19:02.014Z,41.24
2023-05-07T18:21:33.269Z,40.82
2023-05-07T18:24:02.749Z,41.21
2023-05-07T18:26:32.759Z,41.16
2023-05-07T18:29:03.331Z,41.42
2023-05-07T18:31:36.785Z,41.26
2023-05-07T18:34:07.371Z,41.25
2023-05-07T18:36:37.848Z,41.26
2023-05-07T18:39:09.656Z,41.65
2023-05-07T18:41:40.966Z,41.50
2023-05-07T18:44:12.318Z,41.75
2023-05-07T18:46:42.239Z,42.23
2023-05-07T18:49:13.357Z,42.36
2023-05-07T18:51:42.956Z,42.20
2023-05-07T18:54:13.095Z,42.11
2023-05-07T18:56:44.246Z,42.10
2023-05-07T18:59:17.959Z,41.97
2023-05-07T19:01:53.482Z,42.57
2023-05-07T19:04:26.949Z,43.38
2023-05-07T19:06:57.968Z,44.00
2023-05-07T19:09:30.105Z,44.64
2023-05-07T19:12:02.162Z,44.06
2023-05-07T19:14:37.186Z,44.05
2023-05-07T19:17:09.477Z,44.43
2023-05-07T19:19:42.084Z,44.72
2023-05-07T19:22:13.680Z,44.95
2023-05-07T19:24:44.394Z,45.27
2023-05-07T19:27:17.229Z,46.16
2023-05-07T19:29:48.471Z,46.45
2023-05-07T19:32:20.869Z,46.28
2023-05-07T19:34:51.972Z,46.52
2023-05-07T19:37:26.154Z,46.16
2023-05-07T19:39:59.134Z,46.01
2023-05-07T19:42:32.028Z,45.95
2023-05-07T19:45:04.581Z,46.02
2023-05-07T19:47:36.076Z,46.43
2023-05-07T19:50:10.149Z,46.76
2023-05-07T19:52:42.657Z,47.03
2023-05-07T19:55:14.960Z,47.19
2023-05-07T19:57:52.181Z,47.33
2023-05-07T20:00:26.404Z,48.10
2023-05-07T20:02:56.319Z,48.77
2023-05-07T20:05:28.901Z,48.93
2023-05-07T20:08:01.174Z,49.17
2023-05-07T20:10:31.602Z,49.25
2023-05-07T20:13:03.813Z,49.68
2023-05-07T20:15:34.174Z,49.97
2023-05-07T20:18:04.414Z,50.12
2023-05-07T20:20:35.418Z,49.95
2023-05-07T20:23:07.232Z,49.85
2023-05-07T20:25:38.620Z,49.84
2023-05-07T20:28:09.122Z,49.68
2023-05-07T20:30:40.093Z,49.93
2023-05-07T20:33:10.375Z,50.36
2023-05-07T20:35:44.362Z,50.59
2023-05-07T20:38:18.514Z,50.64
2023-05-07T20:40:48.634Z,50.54
2023-05-07T20:43:19.472Z,50.35
2023-05-07T20:45:48.998Z,50.45
2023-05-07T20:48:20.131Z,50.69
2023-05-07T20:50:49.856Z,50.78
2023-05-07T20:53:20.097Z,50.88
2023-05-07T20:55:49.043Z,50.86
2023-05-07T20:58:19.480Z,50.97
2023-05-07T21:00:48.666Z,51.43
2023-05-07T21:03:18.731Z,51.67
2023-05-07T21:05:55.262Z,52.03
2023-05-07T21:08:25.539Z,52.28
2023-05-07T21:10:56.508Z,52.30
2023-05-07T21:13:27.580Z,52.09
2023-05-07T21:15:57.664Z,52.16
2023-05-07T21:18:27.520Z,51.83
2023-05-07T21:20:57.582Z,51.63
2023-05-07T21:23:27.828Z,51.26
2023-05-07T21:25:57.211Z,51.53
2023-05-07T21:28:27.869Z,51.76
2023-05-07T21:30:57.005Z,51.69
2023-05-07T21:33:27.874Z,51.53
2023-05-07T21:35:56.924Z,51.61
2023-05-07T21:38:25.924Z,51.79
2023-05-07T21:40:54.811Z,51.98
2023-05-07T21:43:24.526Z,52.04
2023-05-07T21:45:53.552Z,52.57
2023-05-07T21:48:22.921Z,52.91
2023-05-07T21:51:09.163Z,53.62
2023-05-07T21:53:40.009Z,53.84
2023-05-07T21:56:09.360Z,53.85
2023-05-07T21:58:38.808Z,53.50
2023-05-07T22:01:09.905Z,53.38
2023-05-07T22:03:40.156Z,53.46
2023-05-07T22:06:09.692Z,52.93
2023-05-07T22:08:39.248Z,52.92
2023-05-07T22:11:08.568Z,53.01
2023-05-07T22:13:38.061Z,52.78
2023-05-07T22:16:06.911Z,52.85
2023-05-07T22:18:35.758Z,53.02
2023-05-07T22:21:05.757Z,53.09
2023-05-07T22:23:35.181Z,53.07
2023-05-07T22:26:12.147Z,53.37
2023-05-07T22:28:41.925Z,53.50
2023-05-07T22:31:10.972Z,53.64
2023-05-07T22:33:40.200Z,54.06
2023-05-07T22:36:10.939Z,53.82
2023-05-07T22:38:40.185Z,53.68
2023-05-07T22:41:09.624Z,53.68
2023-05-07T22:43:39.938Z,53.54
2023-05-07T22:46:09.177Z,53.61
2023-05-07T22:48:38.723Z,53.91
2023-05-07T22:51:14.747Z,54.20
2023-05-07T22:53:43.966Z,54.33
2023-05-07T22:56:12.996Z,54.29
2023-05-07T22:58:42.414Z,53.99
2023-05-07T23:01:16.163Z,54.01
2023-05-07T23:03:45.197Z,54.28
2023-05-07T23:06:14.390Z,54.67
2023-05-07T23:08:43.923Z,55.17
2023-05-07T23:11:14.506Z,55.24
2023-05-07T23:13:43.842Z,54.98
2023-05-07T23:16:13.483Z,54.76
2023-05-07T23:18:43.292Z,54.63
2023-05-07T23:21:12.648Z,54.77
2023-05-07T23:23:41.904Z,54.77
2023-05-07T23:26:11.451Z,55.14
2023-05-07T23:28:40.848Z,55.13
2023-05-07T23:31:11.599Z,55.39
2023-05-07T23:33:41.934Z,55.30
2023-05-07T23:36:11.598Z,55.47
2023-05-07T23:38:41.018Z,55.37
2023-05-07T23:41:09.861Z,55.29
2023-05-07T23:43:39.014Z,55.46
2023-05-07T23:46:09.234Z,55.78
2023-05-07T23:48:38.434Z,56.21
2023-05-07T23:51:07.424Z,55.96
2023-05-07T23:53:36.433Z,55.88
2023-05-07T23:56:06.276Z,55.89
2023-05-07T23:58:35.502Z,56.12
